Ponte Vedra Beach, Florida
Current Conditions -  °F | °C
As of 5:53 PM on Thursday 23 Oct 2014 (Local Time) from KCRG Reporting Station
Clear Clear  
Wind Chill: 69°   Ceiling: Unl
Heat Index: 69°   Visibility: 10mi
Dew Point: 48°   Wind: 6mph
Humidity: 47%   Direction: 90°E
Pressure: 30"   Gusts: NA
Location:  30.24°N, 81.39°W
Report Text: KCRG 232153Z 09005KT 10SM CLR 21/09 A3000 RMK AO2 SLP158 T02060089
Loading
Personal Weather Stations






























Interactive Weather Map
Tropical Storm Tracking
New forecast layout! Learn more

10-Day Weather Forecast

Advertisements
Track Severe Weather on mobile